createdAt,value
2023-03-29T00:03:02.553Z,6.55
2023-03-29T00:08:05.746Z,6.35
2023-03-29T00:13:08.612Z,6.67
2023-03-29T00:18:12.795Z,7.38
2023-03-29T00:23:15.968Z,7.18
2023-03-29T00:28:18.959Z,7.20
2023-03-29T00:33:23.172Z,6.97
2023-03-29T00:38:26.342Z,7.22
2023-03-29T00:43:29.208Z,7.50
2023-03-29T00:48:33.540Z,7.78
2023-03-29T00:53:39.662Z,7.22
2023-03-29T00:58:45.838Z,7.88
2023-03-29T01:03:54.386Z,7.95
2023-03-29T01:08:59.588Z,7.90
2023-03-29T01:14:04.728Z,7.10
2023-03-29T01:19:11.679Z,7.50
2023-03-29T01:24:41.951Z,7.00
2023-03-29T01:29:49.042Z,7.27
2023-03-29T01:34:56.564Z,7.35
2023-03-29T01:39:59.552Z,7.50
2023-03-29T01:45:09.912Z,7.45
2023-03-29T01:50:15.873Z,8.05
2023-03-29T01:55:21.811Z,8.15
2023-03-29T02:00:27.742Z,7.97
2023-03-29T02:05:31.603Z,7.80
2023-03-29T02:10:35.370Z,8.30
2023-03-29T02:15:40.849Z,8.33
2023-03-29T02:20:47.304Z,8.87
2023-03-29T02:25:53.469Z,9.15
2023-03-29T02:31:04.716Z,8.73
2023-03-29T02:36:14.448Z,9.18
2023-03-29T02:41:17.993Z,9.30
2023-03-29T02:46:22.562Z,9.05
2023-03-29T02:51:27.441Z,9.80
2023-03-29T02:56:30.619Z,9.73
2023-03-29T03:01:36.759Z,9.77
2023-03-29T03:06:39.966Z,10.80
2023-03-29T03:11:42.862Z,9.60
2023-03-29T03:16:47.303Z,9.90
2023-03-29T03:21:50.994Z,12.00
2023-03-29T03:26:54.476Z,12.43
2023-03-29T03:31:58.665Z,12.70
2023-03-29T03:37:20.111Z,12.13
2023-03-29T03:42:23.124Z,11.45
2023-03-29T03:47:27.334Z,12.40
2023-03-29T03:52:32.847Z,12.20
2023-03-29T03:57:37.522Z,12.77
2023-03-29T04:02:42.876Z,12.40
2023-03-29T04:07:45.907Z,12.70
2023-03-29T04:13:08.998Z,13.07
2023-03-29T04:18:34.426Z,10.05
2023-03-29T04:23:37.777Z,7.43
2023-03-29T04:28:41.894Z,7.70
2023-03-29T04:33:53.397Z,7.57
2023-03-29T04:38:56.969Z,7.03
2023-03-29T04:44:03.514Z,7.50
2023-03-29T04:49:08.970Z,8.03
2023-03-29T04:54:15.752Z,7.78
2023-03-29T04:59:41.443Z,8.50
2023-03-29T05:04:56.856Z,8.05
2023-03-29T05:10:00.803Z,8.40
2023-03-29T05:15:03.913Z,9.13
2023-03-29T05:20:11.777Z,10.27
2023-03-29T05:25:17.513Z,12.38
2023-03-29T05:30:20.782Z,10.87
2023-03-29T05:35:36.040Z,12.02
2023-03-29T05:40:42.780Z,11.80
2023-03-29T05:46:04.610Z,11.55
2023-03-29T05:51:09.881Z,10.32
2023-03-29T05:56:16.045Z,13.75
2023-03-29T06:01:19.470Z,11.93
2023-03-29T06:06:35.765Z,14.45
2023-03-29T06:11:39.331Z,14.93
2023-03-29T06:17:02.733Z,14.67
2023-03-29T06:22:07.123Z,13.77
2023-03-29T06:27:10.661Z,15.00
2023-03-29T06:32:13.841Z,15.00
2023-03-29T06:37:27.676Z,15.35
2023-03-29T06:42:43.339Z,15.73
2023-03-29T06:48:24.710Z,16.42
2023-03-29T06:53:29.222Z,15.15
2023-03-29T06:58:36.703Z,16.80
2023-03-29T07:03:47.476Z,15.52
2023-03-29T07:08:59.529Z,16.88
2023-03-29T07:14:30.874Z,18.58
2023-03-29T07:19:34.795Z,18.70
2023-03-29T07:25:02.224Z,19.23
2023-03-29T07:30:11.143Z,17.48
2023-03-29T07:35:17.691Z,18.13
2023-03-29T07:40:23.937Z,18.92
2023-03-29T07:45:33.293Z,19.33
2023-03-29T07:50:42.032Z,18.37
2023-03-29T07:55:49.149Z,17.58
2023-03-29T08:01:30.251Z,19.20
2023-03-29T08:06:55.326Z,20.02
2023-03-29T08:12:05.249Z,21.88
2023-03-29T08:17:12.092Z,21.80
2023-03-29T08:22:22.045Z,17.53
2023-03-29T08:27:54.572Z,20.25
2023-03-29T08:33:16.196Z,20.92
2023-03-29T08:38:21.740Z,22.48
2023-03-29T08:43:56.321Z,25.38
2023-03-29T08:49:13.183Z,27.73
2023-03-29T08:54:20.538Z,27.35
2023-03-29T08:59:45.579Z,28.83
2023-03-29T09:04:52.445Z,25.67
2023-03-29T09:10:17.580Z,29.65
2023-03-29T09:15:27.802Z,24.77
2023-03-29T09:21:08.457Z,23.33
2023-03-29T09:26:19.561Z,23.00
2023-03-29T09:31:43.401Z,23.20
2023-03-29T09:36:51.365Z,23.60
2023-03-29T09:41:58.101Z,22.35
2023-03-29T09:47:04.611Z,24.17
2023-03-29T09:52:13.833Z,23.17
2023-03-29T09:57:21.362Z,22.83
2023-03-29T10:02:30.700Z,25.77
2023-03-29T10:07:44.666Z,25.20
2023-03-29T10:12:51.749Z,27.05
2023-03-29T10:18:00.826Z,24.63
2023-03-29T10:23:06.365Z,23.17
2023-03-29T10:28:13.099Z,25.10
2023-03-29T10:33:21.223Z,26.85
2023-03-29T10:38:25.913Z,27.77
2023-03-29T10:43:32.241Z,29.90
2023-03-29T10:48:37.314Z,28.48
2023-03-29T10:53:40.257Z,29.65
2023-03-29T10:58:56.386Z,32.05
2023-03-29T11:04:19.413Z,23.90
2023-03-29T11:09:27.726Z,23.47
2023-03-29T11:14:39.933Z,24.23
2023-03-29T11:19:55.281Z,23.67
2023-03-29T11:25:11.162Z,36.50
2023-03-29T11:30:18.809Z,38.22
2023-03-29T11:35:34.713Z,38.50
2023-03-29T11:40:46.287Z,41.55
2023-03-29T11:45:53.476Z,40.78
2023-03-29T11:51:00.967Z,38.87
2023-03-29T11:56:10.232Z,37.30
2023-03-29T12:01:15.028Z,37.80
2023-03-29T12:06:22.652Z,37.88
2023-03-29T12:11:31.166Z,39.23
2023-03-29T12:16:37.217Z,36.35
2023-03-29T12:21:42.651Z,33.25
2023-03-29T12:26:57.784Z,31.55
2023-03-29T12:32:15.969Z,27.80
2023-03-29T12:37:38.186Z,25.02
2023-03-29T12:43:03.993Z,21.80
2023-03-29T12:48:31.829Z,22.67
2023-03-29T12:53:37.754Z,24.53
2023-03-29T12:58:51.719Z,24.10
2023-03-29T13:03:58.742Z,28.20
2023-03-29T13:09:05.733Z,27.30
2023-03-29T13:14:14.321Z,24.57
2023-03-29T13:19:28.262Z,22.05
2023-03-29T13:24:42.111Z,23.10
2023-03-29T13:29:53.473Z,24.45
2023-03-29T13:35:00.704Z,22.55
2023-03-29T13:40:45.346Z,19.73
2023-03-29T13:46:19.851Z,26.88
2023-03-29T13:51:29.271Z,30.90
2023-03-29T13:56:35.689Z,35.90
2023-03-29T14:01:45.887Z,36.38
2023-03-29T14:07:14.423Z,34.87
2023-03-29T14:12:20.389Z,34.78
2023-03-29T14:17:26.046Z,28.02
2023-03-29T14:22:32.456Z,27.13
2023-03-29T14:27:37.109Z,29.08
2023-03-29T14:32:41.431Z,25.88
2023-03-29T14:37:44.528Z,24.52
2023-03-29T14:42:48.478Z,25.17
2023-03-29T14:47:53.102Z,24.60
2023-03-29T14:52:57.816Z,25.20
2023-03-29T14:58:01.305Z,22.53
2023-03-29T15:03:14.170Z,19.75
2023-03-29T15:08:20.637Z,21.00
2023-03-29T15:13:25.232Z,23.73
2023-03-29T15:18:32.050Z,24.40
2023-03-29T15:23:39.415Z,25.65
2023-03-29T15:28:49.640Z,28.75
2023-03-29T15:34:04.031Z,30.13
2023-03-29T15:39:10.718Z,30.42
2023-03-29T15:44:17.382Z,34.97
2023-03-29T15:49:21.897Z,36.85
2023-03-29T15:54:24.977Z,32.58
2023-03-29T15:59:27.955Z,30.15
2023-03-29T16:04:32.178Z,28.67
2023-03-29T16:09:35.536Z,26.77
2023-03-29T16:14:38.378Z,27.53
2023-03-29T16:19:42.653Z,29.47
2023-03-29T16:24:45.649Z,27.48
2023-03-29T16:29:48.541Z,27.98
2023-03-29T16:34:53.839Z,29.50
2023-03-29T16:39:58.144Z,30.88
2023-03-29T16:45:02.230Z,32.53
2023-03-29T16:50:08.136Z,33.70
2023-03-29T16:55:12.740Z,34.30
2023-03-29T17:00:19.512Z,37.88
2023-03-29T17:05:25.296Z,38.58
2023-03-29T17:10:28.219Z,40.08
2023-03-29T17:15:31.365Z,41.17
2023-03-29T17:20:35.685Z,43.38
2023-03-29T17:25:38.735Z,45.92
2023-03-29T17:30:41.815Z,45.45
2023-03-29T17:35:46.246Z,46.35
2023-03-29T17:40:53.185Z,45.22
2023-03-29T17:45:56.286Z,43.92
2023-03-29T17:51:00.431Z,42.20
2023-03-29T17:56:03.526Z,41.78
2023-03-29T18:01:10.542Z,39.87
2023-03-29T18:06:16.685Z,41.17
2023-03-29T18:11:23.831Z,34.70
2023-03-29T18:16:26.855Z,34.90
2023-03-29T18:21:31.045Z,33.55
2023-03-29T18:26:33.897Z,32.38
2023-03-29T18:31:36.874Z,32.20
2023-03-29T18:36:41.174Z,31.02
2023-03-29T18:41:43.965Z,26.40
2023-03-29T18:46:48.019Z,27.52
2023-03-29T18:51:52.292Z,25.95
2023-03-29T18:56:57.859Z,23.87
2023-03-29T19:02:01.921Z,22.13
2023-03-29T19:07:06.820Z,22.63
2023-03-29T19:12:09.841Z,21.10
2023-03-29T19:17:12.712Z,21.05
2023-03-29T19:22:17.356Z,22.50
2023-03-29T19:27:20.324Z,20.95
2023-03-29T19:32:23.053Z,21.48
2023-03-29T19:37:27.327Z,22.13
2023-03-29T19:42:30.274Z,20.33
2023-03-29T19:47:33.204Z,19.65
2023-03-29T19:52:37.416Z,19.25
2023-03-29T19:57:40.160Z,23.00
2023-03-29T20:02:42.954Z,21.50
2023-03-29T20:07:47.141Z,23.23
2023-03-29T20:12:50.960Z,23.92
2023-03-29T20:17:55.326Z,22.35
2023-03-29T20:23:05.184Z,23.15
2023-03-29T20:28:08.584Z,22.20
2023-03-29T20:33:11.392Z,20.23
2023-03-29T20:38:15.810Z,15.63
2023-03-29T20:43:20.081Z,13.60
2023-03-29T20:48:24.742Z,12.05
2023-03-29T20:53:34.574Z,12.13
2023-03-29T20:58:41.794Z,11.32
2023-03-29T21:03:44.711Z,11.38
2023-03-29T21:08:50.401Z,12.32
2023-03-29T21:13:53.889Z,11.60
2023-03-29T21:18:56.688Z,10.88
2023-03-29T21:24:00.762Z,10.98
2023-03-29T21:29:03.660Z,10.48
2023-03-29T21:34:06.489Z,11.23
2023-03-29T21:39:10.883Z,11.07
2023-03-29T21:44:13.860Z,11.10
2023-03-29T21:49:16.662Z,10.98
2023-03-29T21:54:20.817Z,11.05
2023-03-29T21:59:23.614Z,10.00
2023-03-29T22:04:35.771Z,9.10
2023-03-29T22:09:42.317Z,10.03
2023-03-29T22:14:45.321Z,9.90
2023-03-29T22:19:48.056Z,9.93
2023-03-29T22:24:54.744Z,10.20
2023-03-29T22:29:58.609Z,10.53
2023-03-29T22:35:01.538Z,10.20
2023-03-29T22:40:09.044Z,8.70
2023-03-29T22:45:12.238Z,9.00
2023-03-29T22:50:15.112Z,10.07
2023-03-29T22:55:19.293Z,8.60
2023-03-29T23:00:22.411Z,8.55
2023-03-29T23:05:25.288Z,8.65
2023-03-29T23:10:30.562Z,8.32
2023-03-29T23:15:33.952Z,8.55
2023-03-29T23:20:36.780Z,7.97
2023-03-29T23:25:41.426Z,7.10
2023-03-29T23:30:44.527Z,7.32
2023-03-29T23:35:47.440Z,9.65
2023-03-29T23:40:58.975Z,9.00
2023-03-29T23:46:03.650Z,6.67
2023-03-29T23:51:08.145Z,5.53
2023-03-29T23:56:12.627Z,6.70
